sensor_id;sensor_type;location;lat;lon;timestamp;temperature;humidity
2407;DHT22;37709;53.480;9.688;2023-07-30T00:02:26;15.50;99.90
2407;DHT22;37709;53.480;9.688;2023-07-30T00:04:53;15.60;99.90
2407;DHT22;37709;53.480;9.688;2023-07-30T00:07:21;15.60;99.90
2407;DHT22;37709;53.480;9.688;2023-07-30T00:09:48;15.60;99.90
2407;DHT22;37709;53.480;9.688;2023-07-30T00:12:16;15.60;99.90
2407;DHT22;37709;53.480;9.688;2023-07-30T00:14:43;15.60;99.90
2407;DHT22;37709;53.480;9.688;2023-07-30T00:17:11;15.60;99.90
2407;DHT22;37709;53.480;9.688;2023-07-30T00:19:38;15.60;99.90
2407;DHT22;37709;53.480;9.688;2023-07-30T00:22:05;15.60;99.90
2407;DHT22;37709;53.480;9.688;2023-07-30T00:24:33;15.60;99.90
2407;DHT22;37709;53.480;9.688;2023-07-30T00:27:00;15.60;99.90
2407;DHT22;37709;53.480;9.688;2023-07-30T00:29:27;15.50;99.90
2407;DHT22;37709;53.480;9.688;2023-07-30T00:31:55;15.50;99.90
2407;DHT22;37709;53.480;9.688;2023-07-30T00:34:22;15.50;99.90
2407;DHT22;37709;53.480;9.688;2023-07-30T00:36:49;15.50;99.90
2407;DHT22;37709;53.480;9.688;2023-07-30T00:39:16;15.50;99.90
2407;DHT22;37709;53.480;9.688;2023-07-30T00:41:44;15.50;99.90
2407;DHT22;37709;53.480;9.688;2023-07-30T00:44:13;15.50;99.90
2407;DHT22;37709;53.480;9.688;2023-07-30T00:46:41;15.50;99.90
2407;DHT22;37709;53.480;9.688;2023-07-30T00:49:09;15.50;99.90
2407;DHT22;37709;53.480;9.688;2023-07-30T00:51:37;15.40;99.90
2407;DHT22;37709;53.480;9.688;2023-07-30T00:54:05;15.20;99.90
2407;DHT22;37709;53.480;9.688;2023-07-30T00:56:33;15.00;99.90
2407;DHT22;37709;53.480;9.688;2023-07-30T00:59:01;14.90;99.90
2407;DHT22;37709;53.480;9.688;2023-07-30T01:01:33;14.80;99.90
2407;DHT22;37709;53.480;9.688;2023-07-30T01:04:03;14.90;99.90
2407;DHT22;37709;53.480;9.688;2023-07-30T01:06:31;14.90;99.90
2407;DHT22;37709;53.480;9.688;2023-07-30T01:08:58;14.70;99.90
2407;DHT22;37709;53.480;9.688;2023-07-30T01:11:26;14.70;99.90
2407;DHT22;37709;53.480;9.688;2023-07-30T01:13:54;14.60;99.90
2407;DHT22;37709;53.480;9.688;2023-07-30T01:16:22;14.60;99.90
2407;DHT22;37709;53.480;9.688;2023-07-30T01:18:49;14.60;99.90
2407;DHT22;37709;53.480;9.688;2023-07-30T01:21:17;14.60;99.90
2407;DHT22;37709;53.480;9.688;2023-07-30T01:23:44;14.60;99.90
2407;DHT22;37709;53.480;9.688;2023-07-30T01:26:19;14.60;99.90
2407;DHT22;37709;53.480;9.688;2023-07-30T01:28:49;14.50;99.90
2407;DHT22;37709;53.480;9.688;2023-07-30T01:31:18;14.50;99.90
2407;DHT22;37709;53.480;9.688;2023-07-30T01:33:48;14.50;99.90
2407;DHT22;37709;53.480;9.688;2023-07-30T01:36:18;14.50;99.90
2407;DHT22;37709;53.480;9.688;2023-07-30T01:38:47;14.60;99.90
2407;DHT22;37709;53.480;9.688;2023-07-30T01:41:16;14.60;99.90
2407;DHT22;37709;53.480;9.688;2023-07-30T01:43:43;14.60;99.90
2407;DHT22;37709;53.480;9.688;2023-07-30T01:46:10;14.60;99.90
2407;DHT22;37709;53.480;9.688;2023-07-30T01:48:38;14.60;99.90
2407;DHT22;37709;53.480;9.688;2023-07-30T01:51:06;14.50;99.90
2407;DHT22;37709;53.480;9.688;2023-07-30T01:53:33;14.40;99.90
2407;DHT22;37709;53.480;9.688;2023-07-30T01:56:00;14.40;99.90
2407;DHT22;37709;53.480;9.688;2023-07-30T01:58:27;14.40;99.90
2407;DHT22;37709;53.480;9.688;2023-07-30T02:00:55;14.30;99.90
2407;DHT22;37709;53.480;9.688;2023-07-30T02:03:23;14.30;99.90
2407;DHT22;37709;53.480;9.688;2023-07-30T02:05:51;14.30;99.90
2407;DHT22;37709;53.480;9.688;2023-07-30T02:08:18;14.30;99.90
2407;DHT22;37709;53.480;9.688;2023-07-30T02:10:55;14.30;99.90
2407;DHT22;37709;53.480;9.688;2023-07-30T02:13:23;14.30;99.90
2407;DHT22;37709;53.480;9.688;2023-07-30T02:15:51;14.20;99.90
2407;DHT22;37709;53.480;9.688;2023-07-30T02:18:18;14.20;99.90
2407;DHT22;37709;53.480;9.688;2023-07-30T02:20:46;14.30;99.90
2407;DHT22;37709;53.480;9.688;2023-07-30T02:23:14;14.20;99.90
2407;DHT22;37709;53.480;9.688;2023-07-30T02:25:43;14.20;99.90
2407;DHT22;37709;53.480;9.688;2023-07-30T02:28:10;14.20;99.90
2407;DHT22;37709;53.480;9.688;2023-07-30T02:30:42;14.20;99.90
2407;DHT22;37709;53.480;9.688;2023-07-30T02:33:10;14.20;99.90
2407;DHT22;37709;53.480;9.688;2023-07-30T02:35:38;14.20;99.90
2407;DHT22;37709;53.480;9.688;2023-07-30T02:38:05;14.20;99.90
2407;DHT22;37709;53.480;9.688;2023-07-30T02:40:33;14.10;99.90
2407;DHT22;37709;53.480;9.688;2023-07-30T02:43:00;14.10;99.90
2407;DHT22;37709;53.480;9.688;2023-07-30T02:45:29;14.10;99.90
2407;DHT22;37709;53.480;9.688;2023-07-30T02:47:57;14.00;99.90
2407;DHT22;37709;53.480;9.688;2023-07-30T02:50:25;14.00;99.90
2407;DHT22;37709;53.480;9.688;2023-07-30T02:52:52;14.10;99.90
2407;DHT22;37709;53.480;9.688;2023-07-30T02:55:21;14.10;99.90
2407;DHT22;37709;53.480;9.688;2023-07-30T02:57:48;14.00;99.90
2407;DHT22;37709;53.480;9.688;2023-07-30T03:00:16;13.90;99.90
2407;DHT22;37709;53.480;9.688;2023-07-30T03:02:43;13.90;99.90
2407;DHT22;37709;53.480;9.688;2023-07-30T03:05:11;13.90;99.90
2407;DHT22;37709;53.480;9.688;2023-07-30T03:07:38;13.90;99.90
2407;DHT22;37709;53.480;9.688;2023-07-30T03:10:06;13.90;99.90
2407;DHT22;37709;53.480;9.688;2023-07-30T03:12:34;13.90;99.90
2407;DHT22;37709;53.480;9.688;2023-07-30T03:15:01;13.90;99.90
2407;DHT22;37709;53.480;9.688;2023-07-30T03:17:31;13.90;99.90
2407;DHT22;37709;53.480;9.688;2023-07-30T03:19:58;13.80;99.90
2407;DHT22;37709;53.480;9.688;2023-07-30T03:22:26;13.80;99.90
2407;DHT22;37709;53.480;9.688;2023-07-30T03:24:54;13.80;99.90
2407;DHT22;37709;53.480;9.688;2023-07-30T03:27:21;13.70;99.90
2407;DHT22;37709;53.480;9.688;2023-07-30T03:29:49;13.70;99.90
2407;DHT22;37709;53.480;9.688;2023-07-30T03:32:16;13.70;99.90
2407;DHT22;37709;53.480;9.688;2023-07-30T03:34:44;13.70;99.90
2407;DHT22;37709;53.480;9.688;2023-07-30T03:37:12;13.80;99.90
2407;DHT22;37709;53.480;9.688;2023-07-30T03:39:40;13.70;99.90
2407;DHT22;37709;53.480;9.688;2023-07-30T03:42:07;13.70;99.90
2407;DHT22;37709;53.480;9.688;2023-07-30T03:44:35;13.70;99.90
2407;DHT22;37709;53.480;9.688;2023-07-30T03:47:02;13.70;99.90
2407;DHT22;37709;53.480;9.688;2023-07-30T03:49:30;13.70;99.90
2407;DHT22;37709;53.480;9.688;2023-07-30T03:51:57;13.70;99.90
2407;DHT22;37709;53.480;9.688;2023-07-30T03:54:24;13.70;99.90
2407;DHT22;37709;53.480;9.688;2023-07-30T03:56:53;13.80;99.90
2407;DHT22;37709;53.480;9.688;2023-07-30T03:59:20;13.70;99.90
2407;DHT22;37709;53.480;9.688;2023-07-30T04:01:48;13.70;99.90
2407;DHT22;37709;53.480;9.688;2023-07-30T04:04:16;13.70;99.90
2407;DHT22;37709;53.480;9.688;2023-07-30T04:06:44;13.70;99.90
2407;DHT22;37709;53.480;9.688;2023-07-30T04:09:11;13.80;99.90
2407;DHT22;37709;53.480;9.688;2023-07-30T04:11:38;13.90;99.90
2407;DHT22;37709;53.480;9.688;2023-07-30T04:14:06;13.80;99.90
2407;DHT22;37709;53.480;9.688;2023-07-30T04:16:35;13.80;99.90
2407;DHT22;37709;53.480;9.688;2023-07-30T04:19:03;13.90;99.90
2407;DHT22;37709;53.480;9.688;2023-07-30T04:21:30;13.90;99.90
2407;DHT22;37709;53.480;9.688;2023-07-30T04:23:57;13.90;99.90
2407;DHT22;37709;53.480;9.688;2023-07-30T04:26:24;14.00;99.90
2407;DHT22;37709;53.480;9.688;2023-07-30T04:28:52;14.00;99.90
2407;DHT22;37709;53.480;9.688;2023-07-30T04:31:20;14.00;99.90
2407;DHT22;37709;53.480;9.688;2023-07-30T04:33:47;14.10;99.90
2407;DHT22;37709;53.480;9.688;2023-07-30T04:36:14;14.20;99.90
2407;DHT22;37709;53.480;9.688;2023-07-30T04:38:43;14.20;99.90
2407;DHT22;37709;53.480;9.688;2023-07-30T04:41:11;14.20;99.90
2407;DHT22;37709;53.480;9.688;2023-07-30T04:43:43;14.30;99.90
2407;DHT22;37709;53.480;9.688;2023-07-30T04:46:10;14.40;99.90
2407;DHT22;37709;53.480;9.688;2023-07-30T04:48:38;14.40;99.90
2407;DHT22;37709;53.480;9.688;2023-07-30T04:51:06;14.50;99.90
2407;DHT22;37709;53.480;9.688;2023-07-30T04:53:34;14.60;99.90
2407;DHT22;37709;53.480;9.688;2023-07-30T04:56:01;14.60;99.90
2407;DHT22;37709;53.480;9.688;2023-07-30T04:58:28;14.70;99.90
2407;DHT22;37709;53.480;9.688;2023-07-30T05:00:56;14.80;99.90
2407;DHT22;37709;53.480;9.688;2023-07-30T05:03:23;14.80;99.90
2407;DHT22;37709;53.480;9.688;2023-07-30T05:05:50;14.80;99.90
2407;DHT22;37709;53.480;9.688;2023-07-30T05:08:18;14.90;99.90
2407;DHT22;37709;53.480;9.688;2023-07-30T05:10:45;15.00;99.90
2407;DHT22;37709;53.480;9.688;2023-07-30T05:13:14;15.00;99.90
2407;DHT22;37709;53.480;9.688;2023-07-30T05:15:41;15.10;99.90
2407;DHT22;37709;53.480;9.688;2023-07-30T05:18:09;15.20;99.90
2407;DHT22;37709;53.480;9.688;2023-07-30T05:20:36;15.20;99.90
2407;DHT22;37709;53.480;9.688;2023-07-30T05:23:04;15.30;99.90
2407;DHT22;37709;53.480;9.688;2023-07-30T05:25:34;15.50;99.90
2407;DHT22;37709;53.480;9.688;2023-07-30T05:28:01;15.60;99.90
2407;DHT22;37709;53.480;9.688;2023-07-30T05:30:29;15.70;99.90
2407;DHT22;37709;53.480;9.688;2023-07-30T05:32:56;15.70;99.90
2407;DHT22;37709;53.480;9.688;2023-07-30T05:35:24;15.80;99.90
2407;DHT22;37709;53.480;9.688;2023-07-30T05:37:52;15.80;99.90
2407;DHT22;37709;53.480;9.688;2023-07-30T05:40:19;15.80;99.90
2407;DHT22;37709;53.480;9.688;2023-07-30T05:42:46;15.80;99.90
2407;DHT22;37709;53.480;9.688;2023-07-30T05:45:14;15.70;99.90
2407;DHT22;37709;53.480;9.688;2023-07-30T05:47:42;15.70;99.90
2407;DHT22;37709;53.480;9.688;2023-07-30T05:50:14;15.70;99.90
2407;DHT22;37709;53.480;9.688;2023-07-30T05:52:41;15.70;99.90
2407;DHT22;37709;53.480;9.688;2023-07-30T05:55:09;15.80;99.90
2407;DHT22;37709;53.480;9.688;2023-07-30T05:57:36;15.80;99.90
2407;DHT22;37709;53.480;9.688;2023-07-30T06:00:04;15.90;99.90
2407;DHT22;37709;53.480;9.688;2023-07-30T06:02:38;16.00;99.90
2407;DHT22;37709;53.480;9.688;2023-07-30T06:05:05;16.10;99.90
2407;DHT22;37709;53.480;9.688;2023-07-30T06:07:33;16.10;99.90
2407;DHT22;37709;53.480;9.688;2023-07-30T06:10:00;16.30;99.90
2407;DHT22;37709;53.480;9.688;2023-07-30T06:12:27;16.40;99.90
2407;DHT22;37709;53.480;9.688;2023-07-30T06:14:55;16.40;99.90
2407;DHT22;37709;53.480;9.688;2023-07-30T06:17:22;16.50;99.90
2407;DHT22;37709;53.480;9.688;2023-07-30T06:19:49;16.60;99.90
2407;DHT22;37709;53.480;9.688;2023-07-30T06:22:16;16.70;99.90
2407;DHT22;37709;53.480;9.688;2023-07-30T06:24:44;16.80;99.90
2407;DHT22;37709;53.480;9.688;2023-07-30T06:27:12;16.90;99.90
2407;DHT22;37709;53.480;9.688;2023-07-30T06:29:40;17.10;99.90
2407;DHT22;37709;53.480;9.688;2023-07-30T06:32:07;17.20;99.90
2407;DHT22;37709;53.480;9.688;2023-07-30T06:34:34;17.30;99.90
2407;DHT22;37709;53.480;9.688;2023-07-30T06:37:01;17.60;99.90
2407;DHT22;37709;53.480;9.688;2023-07-30T06:39:29;17.90;99.90
2407;DHT22;37709;53.480;9.688;2023-07-30T06:41:57;18.70;99.90
2407;DHT22;37709;53.480;9.688;2023-07-30T06:44:25;19.60;99.90
2407;DHT22;37709;53.480;9.688;2023-07-30T06:46:52;20.70;99.90
2407;DHT22;37709;53.480;9.688;2023-07-30T06:49:20;21.90;99.90
2407;DHT22;37709;53.480;9.688;2023-07-30T06:51:51;23.10;99.90
2407;DHT22;37709;53.480;9.688;2023-07-30T06:54:19;23.40;99.90
2407;DHT22;37709;53.480;9.688;2023-07-30T06:56:47;23.10;99.90
2407;DHT22;37709;53.480;9.688;2023-07-30T06:59:14;24.50;99.90
2407;DHT22;37709;53.480;9.688;2023-07-30T07:01:41;25.60;99.90
2407;DHT22;37709;53.480;9.688;2023-07-30T07:04:10;26.50;99.90
2407;DHT22;37709;53.480;9.688;2023-07-30T07:06:38;26.80;99.90
2407;DHT22;37709;53.480;9.688;2023-07-30T07:09:05;26.80;99.90
2407;DHT22;37709;53.480;9.688;2023-07-30T07:11:32;25.90;99.90
2407;DHT22;37709;53.480;9.688;2023-07-30T07:14:00;27.00;99.90
2407;DHT22;37709;53.480;9.688;2023-07-30T07:16:27;27.50;99.90
2407;DHT22;37709;53.480;9.688;2023-07-30T07:18:54;28.10;99.90
2407;DHT22;37709;53.480;9.688;2023-07-30T07:21:22;29.40;99.90
2407;DHT22;37709;53.480;9.688;2023-07-30T07:23:49;28.90;99.90
2407;DHT22;37709;53.480;9.688;2023-07-30T07:26:16;29.10;99.90
2407;DHT22;37709;53.480;9.688;2023-07-30T07:28:44;29.60;99.90
2407;DHT22;37709;53.480;9.688;2023-07-30T07:31:11;29.50;99.90
2407;DHT22;37709;53.480;9.688;2023-07-30T07:33:39;26.10;99.90
2407;DHT22;37709;53.480;9.688;2023-07-30T07:36:07;26.10;99.90
2407;DHT22;37709;53.480;9.688;2023-07-30T07:38:36;26.10;99.90
2407;DHT22;37709;53.480;9.688;2023-07-30T07:41:03;25.30;99.90
2407;DHT22;37709;53.480;9.688;2023-07-30T07:43:30;26.40;99.90
2407;DHT22;37709;53.480;9.688;2023-07-30T07:45:58;27.90;99.90
2407;DHT22;37709;53.480;9.688;2023-07-30T07:48:25;27.30;99.90
2407;DHT22;37709;53.480;9.688;2023-07-30T07:50:53;25.60;99.90
2407;DHT22;37709;53.480;9.688;2023-07-30T07:53:20;24.20;99.90
2407;DHT22;37709;53.480;9.688;2023-07-30T07:55:47;24.10;99.90
2407;DHT22;37709;53.480;9.688;2023-07-30T07:58:15;26.80;99.90
2407;DHT22;37709;53.480;9.688;2023-07-30T08:00:42;27.70;99.90
2407;DHT22;37709;53.480;9.688;2023-07-30T08:03:09;29.30;99.90
2407;DHT22;37709;53.480;9.688;2023-07-30T08:05:37;30.60;99.90
2407;DHT22;37709;53.480;9.688;2023-07-30T08:08:04;32.50;99.90
2407;DHT22;37709;53.480;9.688;2023-07-30T08:10:31;32.10;99.90
2407;DHT22;37709;53.480;9.688;2023-07-30T08:12:58;29.40;99.90
2407;DHT22;37709;53.480;9.688;2023-07-30T08:15:26;28.00;99.90
2407;DHT22;37709;53.480;9.688;2023-07-30T08:17:53;27.30;99.90
2407;DHT22;37709;53.480;9.688;2023-07-30T08:20:20;26.50;99.90
2407;DHT22;37709;53.480;9.688;2023-07-30T08:22:47;25.80;99.90
2407;DHT22;37709;53.480;9.688;2023-07-30T08:25:15;25.40;99.90
2407;DHT22;37709;53.480;9.688;2023-07-30T08:27:42;25.30;99.90
2407;DHT22;37709;53.480;9.688;2023-07-30T08:30:10;26.40;99.90
2407;DHT22;37709;53.480;9.688;2023-07-30T08:32:38;25.60;99.90
2407;DHT22;37709;53.480;9.688;2023-07-30T08:35:07;24.90;99.90
2407;DHT22;37709;53.480;9.688;2023-07-30T08:37:36;24.80;99.90
2407;DHT22;37709;53.480;9.688;2023-07-30T08:40:04;24.90;99.90
2407;DHT22;37709;53.480;9.688;2023-07-30T08:42:32;26.10;99.90
2407;DHT22;37709;53.480;9.688;2023-07-30T08:45:00;26.50;99.90
2407;DHT22;37709;53.480;9.688;2023-07-30T08:47:27;26.50;99.90
2407;DHT22;37709;53.480;9.688;2023-07-30T08:49:56;26.30;99.90
2407;DHT22;37709;53.480;9.688;2023-07-30T08:52:25;27.00;99.90
2407;DHT22;37709;53.480;9.688;2023-07-30T08:54:53;28.70;99.90
2407;DHT22;37709;53.480;9.688;2023-07-30T08:57:21;28.70;99.90
2407;DHT22;37709;53.480;9.688;2023-07-30T08:59:57;27.10;99.90
2407;DHT22;37709;53.480;9.688;2023-07-30T09:02:33;25.70;99.90
2407;DHT22;37709;53.480;9.688;2023-07-30T09:05:02;25.50;99.90
2407;DHT22;37709;53.480;9.688;2023-07-30T09:07:30;26.00;99.90
2407;DHT22;37709;53.480;9.688;2023-07-30T09:09:58;26.30;99.90
2407;DHT22;37709;53.480;9.688;2023-07-30T09:12:32;26.90;99.90
2407;DHT22;37709;53.480;9.688;2023-07-30T09:15:04;27.30;99.90
2407;DHT22;37709;53.480;9.688;2023-07-30T09:17:34;27.70;99.90
2407;DHT22;37709;53.480;9.688;2023-07-30T09:20:03;27.60;99.90
2407;DHT22;37709;53.480;9.688;2023-07-30T09:22:33;27.50;99.90
2407;DHT22;37709;53.480;9.688;2023-07-30T09:25:03;27.20;99.90
2407;DHT22;37709;53.480;9.688;2023-07-30T09:27:31;27.00;99.90
2407;DHT22;37709;53.480;9.688;2023-07-30T09:30:00;27.40;99.90
2407;DHT22;37709;53.480;9.688;2023-07-30T09:32:31;28.20;99.90
2407;DHT22;37709;53.480;9.688;2023-07-30T09:35:05;29.20;99.90
2407;DHT22;37709;53.480;9.688;2023-07-30T09:37:38;28.70;99.90
2407;DHT22;37709;53.480;9.688;2023-07-30T09:40:06;28.90;99.90
2407;DHT22;37709;53.480;9.688;2023-07-30T09:42:37;29.60;99.90
2407;DHT22;37709;53.480;9.688;2023-07-30T09:45:08;29.30;99.90
2407;DHT22;37709;53.480;9.688;2023-07-30T09:47:53;29.30;99.90
2407;DHT22;37709;53.480;9.688;2023-07-30T09:50:21;29.90;99.50
2407;DHT22;37709;53.480;9.688;2023-07-30T09:52:48;30.50;98.80
2407;DHT22;37709;53.480;9.688;2023-07-30T09:55:16;31.10;98.00
2407;DHT22;37709;53.480;9.688;2023-07-30T09:57:45;31.30;97.00
2407;DHT22;37709;53.480;9.688;2023-07-30T10:00:13;31.70;97.10
2407;DHT22;37709;53.480;9.688;2023-07-30T10:02:45;32.40;96.40
2407;DHT22;37709;53.480;9.688;2023-07-30T10:05:16;32.00;96.40
2407;DHT22;37709;53.480;9.688;2023-07-30T10:07:51;31.70;94.70
2407;DHT22;37709;53.480;9.688;2023-07-30T10:10:22;30.10;95.70
2407;DHT22;37709;53.480;9.688;2023-07-30T10:12:51;29.60;96.50
2407;DHT22;37709;53.480;9.688;2023-07-30T10:15:20;29.00;96.40
2407;DHT22;37709;53.480;9.688;2023-07-30T10:17:51;28.50;97.10
2407;DHT22;37709;53.480;9.688;2023-07-30T10:20:24;28.70;97.80
2407;DHT22;37709;53.480;9.688;2023-07-30T10:22:54;29.10;97.40
2407;DHT22;37709;53.480;9.688;2023-07-30T10:25:45;28.70;97.10
2407;DHT22;37709;53.480;9.688;2023-07-30T10:28:33;27.70;97.40
2407;DHT22;37709;53.480;9.688;2023-07-30T10:31:03;26.50;98.10
2407;DHT22;37709;53.480;9.688;2023-07-30T10:34:06;26.40;98.30
2407;DHT22;37709;53.480;9.688;2023-07-30T10:36:41;26.60;98.50
2407;DHT22;37709;53.480;9.688;2023-07-30T10:39:21;27.00;98.50
2407;DHT22;37709;53.480;9.688;2023-07-30T10:41:50;26.90;98.50
2407;DHT22;37709;53.480;9.688;2023-07-30T10:44:38;27.40;98.20
2407;DHT22;37709;53.480;9.688;2023-07-30T10:47:10;28.40;96.70
2407;DHT22;37709;53.480;9.688;2023-07-30T10:50:01;29.20;96.10
2407;DHT22;37709;53.480;9.688;2023-07-30T10:52:28;30.30;95.00
2407;DHT22;37709;53.480;9.688;2023-07-30T10:55:01;31.00;94.90
2407;DHT22;37709;53.480;9.688;2023-07-30T10:57:30;31.80;94.20
2407;DHT22;37709;53.480;9.688;2023-07-30T10:59:59;32.40;92.00
2407;DHT22;37709;53.480;9.688;2023-07-30T11:02:28;33.00;91.10
2407;DHT22;37709;53.480;9.688;2023-07-30T11:04:57;33.00;90.60
2407;DHT22;37709;53.480;9.688;2023-07-30T11:07:24;32.60;86.50
2407;DHT22;37709;53.480;9.688;2023-07-30T11:12:30;31.20;88.30
2407;DHT22;37709;53.480;9.688;2023-07-30T11:15:02;30.50;89.10
2407;DHT22;37709;53.480;9.688;2023-07-30T11:17:30;30.80;88.80
2407;DHT22;37709;53.480;9.688;2023-07-30T11:19:57;31.20;88.60
2407;DHT22;37709;53.480;9.688;2023-07-30T11:22:32;32.70;85.30
2407;DHT22;37709;53.480;9.688;2023-07-30T11:24:59;32.60;84.00
2407;DHT22;37709;53.480;9.688;2023-07-30T11:29:57;32.30;86.70
2407;DHT22;37709;53.480;9.688;2023-07-30T11:32:27;39.50;74.20
2407;DHT22;37709;53.480;9.688;2023-07-30T11:39:52;40.30;67.00
2407;DHT22;37709;53.480;9.688;2023-07-30T11:44:48;41.10;59.70
2407;DHT22;37709;53.480;9.688;2023-07-30T11:47:22;43.20;54.60
2407;DHT22;37709;53.480;9.688;2023-07-30T11:49:57;42.20;52.40
2407;DHT22;37709;53.480;9.688;2023-07-30T11:52:25;38.40;55.20
2407;DHT22;37709;53.480;9.688;2023-07-30T11:55:02;36.70;56.00
2407;DHT22;37709;53.480;9.688;2023-07-30T11:57:34;36.60;57.10
2407;DHT22;37709;53.480;9.688;2023-07-30T12:00:02;40.00;54.20
2407;DHT22;37709;53.480;9.688;2023-07-30T12:05:07;41.40;51.70
2407;DHT22;37709;53.480;9.688;2023-07-30T12:07:41;37.90;56.70
2407;DHT22;37709;53.480;9.688;2023-07-30T12:10:11;39.20;53.90
2407;DHT22;37709;53.480;9.688;2023-07-30T12:12:46;38.20;53.90
2407;DHT22;37709;53.480;9.688;2023-07-30T12:15:17;36.60;54.80
2407;DHT22;37709;53.480;9.688;2023-07-30T12:17:45;35.00;57.70
2407;DHT22;37709;53.480;9.688;2023-07-30T12:20:12;35.20;57.20
2407;DHT22;37709;53.480;9.688;2023-07-30T12:22:39;34.40;58.40
2407;DHT22;37709;53.480;9.688;2023-07-30T12:25:08;32.70;60.30
2407;DHT22;37709;53.480;9.688;2023-07-30T12:27:37;32.10;60.80
2407;DHT22;37709;53.480;9.688;2023-07-30T12:30:05;33.80;60.00
2407;DHT22;37709;53.480;9.688;2023-07-30T12:32:32;35.70;57.60
2407;DHT22;37709;53.480;9.688;2023-07-30T12:35:00;34.90;58.50
2407;DHT22;37709;53.480;9.688;2023-07-30T12:37:27;35.30;57.80
2407;DHT22;37709;53.480;9.688;2023-07-30T12:39:55;33.60;59.70
2407;DHT22;37709;53.480;9.688;2023-07-30T12:44:50;31.90;63.30
2407;DHT22;37709;53.480;9.688;2023-07-30T12:47:17;28.70;65.90
2407;DHT22;37709;53.480;9.688;2023-07-30T12:49:45;26.70;69.70
2407;DHT22;37709;53.480;9.688;2023-07-30T12:52:13;25.10;77.70
2407;DHT22;37709;53.480;9.688;2023-07-30T13:48:52;23.40;88.70
2407;DHT22;37709;53.480;9.688;2023-07-30T13:51:20;21.30;99.90
2407;DHT22;37709;53.480;9.688;2023-07-30T13:53:47;24.60;99.90
2407;DHT22;37709;53.480;9.688;2023-07-30T13:56:14;27.00;99.90
2407;DHT22;37709;53.480;9.688;2023-07-30T13:58:41;27.40;99.90
2407;DHT22;37709;53.480;9.688;2023-07-30T14:01:11;28.50;99.90
2407;DHT22;37709;53.480;9.688;2023-07-30T14:03:38;29.20;99.90
2407;DHT22;37709;53.480;9.688;2023-07-30T14:06:05;30.40;99.90
2407;DHT22;37709;53.480;9.688;2023-07-30T14:08:32;31.00;98.90
2407;DHT22;37709;53.480;9.688;2023-07-30T14:11:00;30.30;98.50
2407;DHT22;37709;53.480;9.688;2023-07-30T14:13:28;30.10;98.20
2407;DHT22;37709;53.480;9.688;2023-07-30T14:15:56;30.70;97.70
2407;DHT22;37709;53.480;9.688;2023-07-30T14:18:26;31.60;98.70
2407;DHT22;37709;53.480;9.688;2023-07-30T14:20:53;32.00;95.80
2407;DHT22;37709;53.480;9.688;2023-07-30T14:23:21;31.90;96.00
2407;DHT22;37709;53.480;9.688;2023-07-30T14:25:49;32.20;93.40
2407;DHT22;37709;53.480;9.688;2023-07-30T14:28:17;31.80;93.80
2407;DHT22;37709;53.480;9.688;2023-07-30T14:30:44;31.70;93.20
2407;DHT22;37709;53.480;9.688;2023-07-30T14:33:11;31.40;95.70
2407;DHT22;37709;53.480;9.688;2023-07-30T14:35:40;31.50;97.60
2407;DHT22;37709;53.480;9.688;2023-07-30T14:38:07;32.10;94.30
2407;DHT22;37709;53.480;9.688;2023-07-30T14:40:35;33.00;93.40
2407;DHT22;37709;53.480;9.688;2023-07-30T14:43:02;32.70;93.20
2407;DHT22;37709;53.480;9.688;2023-07-30T14:45:30;32.80;91.50
2407;DHT22;37709;53.480;9.688;2023-07-30T14:47:58;32.70;90.70
2407;DHT22;37709;53.480;9.688;2023-07-30T14:50:26;31.90;88.50
2407;DHT22;37709;53.480;9.688;2023-07-30T14:52:54;30.80;92.40
2407;DHT22;37709;53.480;9.688;2023-07-30T14:55:22;30.00;90.80
2407;DHT22;37709;53.480;9.688;2023-07-30T14:57:49;29.30;92.00
2407;DHT22;37709;53.480;9.688;2023-07-30T15:00:17;28.60;91.80
2407;DHT22;37709;53.480;9.688;2023-07-30T15:02:44;28.10;91.10
2407;DHT22;37709;53.480;9.688;2023-07-30T15:05:12;27.90;91.20
2407;DHT22;37709;53.480;9.688;2023-07-30T15:07:39;27.20;92.90
2407;DHT22;37709;53.480;9.688;2023-07-30T15:10:07;26.30;93.70
2407;DHT22;37709;53.480;9.688;2023-07-30T15:12:34;25.90;94.10
2407;DHT22;37709;53.480;9.688;2023-07-30T15:15:03;25.40;95.40
2407;DHT22;37709;53.480;9.688;2023-07-30T15:17:31;24.60;95.70
2407;DHT22;37709;53.480;9.688;2023-07-30T15:19:59;24.20;96.70
2407;DHT22;37709;53.480;9.688;2023-07-30T15:22:26;23.60;96.10
2407;DHT22;37709;53.480;9.688;2023-07-30T15:24:54;23.20;97.20
2407;DHT22;37709;53.480;9.688;2023-07-30T15:27:22;22.90;98.30
2407;DHT22;37709;53.480;9.688;2023-07-30T15:29:50;22.30;98.50
2407;DHT22;37709;53.480;9.688;2023-07-30T15:34:46;21.50;99.90
2407;DHT22;37709;53.480;9.688;2023-07-30T15:37:14;19.60;99.90
2407;DHT22;37709;53.480;9.688;2023-07-30T15:39:41;18.80;99.90
2407;DHT22;37709;53.480;9.688;2023-07-30T15:42:09;18.40;99.90
2407;DHT22;37709;53.480;9.688;2023-07-30T15:44:36;18.20;99.90
2407;DHT22;37709;53.480;9.688;2023-07-30T15:47:04;18.00;99.90
2407;DHT22;37709;53.480;9.688;2023-07-30T15:49:32;18.00;99.90
2407;DHT22;37709;53.480;9.688;2023-07-30T15:52:00;18.30;99.90
2407;DHT22;37709;53.480;9.688;2023-07-30T15:54:34;18.70;99.90
2407;DHT22;37709;53.480;9.688;2023-07-30T15:57:02;19.40;99.90
2407;DHT22;37709;53.480;9.688;2023-07-30T15:59:33;19.50;99.90
2407;DHT22;37709;53.480;9.688;2023-07-30T16:02:00;19.60;99.90
2407;DHT22;37709;53.480;9.688;2023-07-30T16:04:27;19.80;99.90
2407;DHT22;37709;53.480;9.688;2023-07-30T16:06:56;20.20;99.90
2407;DHT22;37709;53.480;9.688;2023-07-30T16:09:24;20.90;99.90
2407;DHT22;37709;53.480;9.688;2023-07-30T16:11:51;20.60;99.90
2407;DHT22;37709;53.480;9.688;2023-07-30T16:14:18;20.20;99.90
2407;DHT22;37709;53.480;9.688;2023-07-30T16:16:47;19.90;99.90
2407;DHT22;37709;53.480;9.688;2023-07-30T16:19:16;19.50;99.90
2407;DHT22;37709;53.480;9.688;2023-07-30T16:21:45;19.30;99.90
2407;DHT22;37709;53.480;9.688;2023-07-30T16:24:16;19.30;99.90
2407;DHT22;37709;53.480;9.688;2023-07-30T16:26:43;19.60;99.90
2407;DHT22;37709;53.480;9.688;2023-07-30T16:29:11;19.80;99.90
2407;DHT22;37709;53.480;9.688;2023-07-30T16:31:39;20.10;99.90
2407;DHT22;37709;53.480;9.688;2023-07-30T16:34:06;20.60;99.90
2407;DHT22;37709;53.480;9.688;2023-07-30T16:36:34;20.50;99.90
2407;DHT22;37709;53.480;9.688;2023-07-30T16:39:02;20.20;99.90
2407;DHT22;37709;53.480;9.688;2023-07-30T16:41:31;19.90;99.90
2407;DHT22;37709;53.480;9.688;2023-07-30T16:43:58;19.70;99.90
2407;DHT22;37709;53.480;9.688;2023-07-30T16:46:26;19.40;99.90
2407;DHT22;37709;53.480;9.688;2023-07-30T16:48:53;19.40;99.90
2407;DHT22;37709;53.480;9.688;2023-07-30T16:51:21;19.40;99.90
2407;DHT22;37709;53.480;9.688;2023-07-30T16:53:49;19.30;99.90
2407;DHT22;37709;53.480;9.688;2023-07-30T16:56:16;19.10;99.90
2407;DHT22;37709;53.480;9.688;2023-07-30T16:58:44;18.80;99.90
2407;DHT22;37709;53.480;9.688;2023-07-30T17:01:12;18.60;99.90
2407;DHT22;37709;53.480;9.688;2023-07-30T17:03:40;18.50;99.90
2407;DHT22;37709;53.480;9.688;2023-07-30T17:06:09;18.40;99.90
2407;DHT22;37709;53.480;9.688;2023-07-30T17:08:36;18.10;99.90